Aspen-Gerbaz, Colorado
Current Conditions -  °F | °C
As of 3:53 AM on Wednesday 22 Oct 2014 (Local Time) from KASE Reporting Station
Light Rain Light Rain  
Wind Chill:   Ceiling: 1200
Heat Index:   Visibility: 6mi
Dew Point:   Wind: 7mph
Humidity: 89%   Direction: 200°SSW
Pressure: 30.23"   Gusts: NA
Location:  39.1256°N, 106.797°W
Report Text: KASE 220953Z AUTO 20006KT 6SM -RA BR BKN012 OVC019 03/02 A3023 RMK AO2 LTG DSNT SW SLP165 P0018 T00330017
Loading
Personal Weather Stations






























Interactive Weather Map
Tropical Storm Tracking
New forecast layout! Learn more

10-Day Weather Forecast

Advertisements
Track Severe Weather on mobile